sensor_id;sensor_type;location;lat;lon;timestamp;P1;durP1;ratioP1;P2;durP2;ratioP2
5393;SDS011;2720;52.396;10.064;2023-02-10T00:01:44;78.97;;;23.97;;
5393;SDS011;2720;52.396;10.064;2023-02-10T00:04:11;62.73;;;22.87;;
5393;SDS011;2720;52.396;10.064;2023-02-10T00:06:38;50.83;;;23.20;;
5393;SDS011;2720;52.396;10.064;2023-02-10T00:09:06;81.67;;;25.30;;
5393;SDS011;2720;52.396;10.064;2023-02-10T00:11:36;64.17;;;23.33;;
5393;SDS011;2720;52.396;10.064;2023-02-10T00:14:21;60.03;;;22.63;;
5393;SDS011;2720;52.396;10.064;2023-02-10T00:16:49;60.03;;;26.23;;
5393;SDS011;2720;52.396;10.064;2023-02-10T00:19:17;56.43;;;22.87;;
5393;SDS011;2720;52.396;10.064;2023-02-10T00:21:44;56.67;;;21.97;;
5393;SDS011;2720;52.396;10.064;2023-02-10T00:24:11;67.17;;;24.80;;
5393;SDS011;2720;52.396;10.064;2023-02-10T00:26:38;63.80;;;26.53;;
5393;SDS011;2720;52.396;10.064;2023-02-10T00:29:05;74.40;;;25.40;;
5393;SDS011;2720;52.396;10.064;2023-02-10T00:31:33;73.93;;;23.40;;
5393;SDS011;2720;52.396;10.064;2023-02-10T00:34:00;76.80;;;25.80;;
5393;SDS011;2720;52.396;10.064;2023-02-10T00:36:27;66.33;;;24.90;;
5393;SDS011;2720;52.396;10.064;2023-02-10T00:38:54;62.17;;;24.37;;
5393;SDS011;2720;52.396;10.064;2023-02-10T00:41:22;74.40;;;25.97;;
5393;SDS011;2720;52.396;10.064;2023-02-10T00:43:50;71.37;;;24.97;;
5393;SDS011;2720;52.396;10.064;2023-02-10T00:46:18;65.87;;;25.10;;
5393;SDS011;2720;52.396;10.064;2023-02-10T00:48:48;74.90;;;26.70;;
5393;SDS011;2720;52.396;10.064;2023-02-10T00:51:16;59.73;;;24.53;;
5393;SDS011;2720;52.396;10.064;2023-02-10T00:53:44;62.70;;;26.03;;
5393;SDS011;2720;52.396;10.064;2023-02-10T00:56:13;70.47;;;27.60;;
5393;SDS011;2720;52.396;10.064;2023-02-10T00:58:40;67.53;;;27.93;;
5393;SDS011;2720;52.396;10.064;2023-02-10T01:01:07;63.37;;;25.57;;
5393;SDS011;2720;52.396;10.064;2023-02-10T01:03:34;57.27;;;25.57;;
5393;SDS011;2720;52.396;10.064;2023-02-10T01:06:03;65.37;;;26.10;;
5393;SDS011;2720;52.396;10.064;2023-02-10T01:08:31;66.47;;;28.07;;
5393;SDS011;2720;52.396;10.064;2023-02-10T01:10:59;67.87;;;26.80;;
5393;SDS011;2720;52.396;10.064;2023-02-10T01:13:27;62.07;;;26.40;;
5393;SDS011;2720;52.396;10.064;2023-02-10T01:15:54;62.43;;;24.80;;
5393;SDS011;2720;52.396;10.064;2023-02-10T01:18:21;70.80;;;24.57;;
5393;SDS011;2720;52.396;10.064;2023-02-10T01:20:48;72.40;;;25.07;;
5393;SDS011;2720;52.396;10.064;2023-02-10T01:23:17;67.90;;;24.97;;
5393;SDS011;2720;52.396;10.064;2023-02-10T01:25:44;53.00;;;25.43;;
5393;SDS011;2720;52.396;10.064;2023-02-10T01:28:11;66.43;;;27.43;;
5393;SDS011;2720;52.396;10.064;2023-02-10T01:30:37;70.30;;;25.40;;
5393;SDS011;2720;52.396;10.064;2023-02-10T01:33:04;60.90;;;25.53;;
5393;SDS011;2720;52.396;10.064;2023-02-10T01:35:31;56.20;;;24.20;;
5393;SDS011;2720;52.396;10.064;2023-02-10T01:37:58;71.23;;;25.30;;
5393;SDS011;2720;52.396;10.064;2023-02-10T01:40:27;62.83;;;24.70;;
5393;SDS011;2720;52.396;10.064;2023-02-10T01:42:54;74.17;;;24.50;;
5393;SDS011;2720;52.396;10.064;2023-02-10T01:45:22;63.43;;;22.97;;
5393;SDS011;2720;52.396;10.064;2023-02-10T01:47:52;55.50;;;24.40;;
5393;SDS011;2720;52.396;10.064;2023-02-10T01:50:22;74.43;;;23.97;;
5393;SDS011;2720;52.396;10.064;2023-02-10T01:52:52;65.27;;;22.47;;
5393;SDS011;2720;52.396;10.064;2023-02-10T01:55:21;63.03;;;24.77;;
5393;SDS011;2720;52.396;10.064;2023-02-10T01:57:55;72.03;;;25.07;;
5393;SDS011;2720;52.396;10.064;2023-02-10T02:00:22;65.00;;;23.33;;
5393;SDS011;2720;52.396;10.064;2023-02-10T02:02:51;61.37;;;25.50;;
5393;SDS011;2720;52.396;10.064;2023-02-10T02:05:20;66.07;;;24.40;;
5393;SDS011;2720;52.396;10.064;2023-02-10T02:07:55;61.90;;;23.50;;
5393;SDS011;2720;52.396;10.064;2023-02-10T02:10:25;54.43;;;24.17;;
5393;SDS011;2720;52.396;10.064;2023-02-10T02:13:09;72.47;;;28.47;;
5393;SDS011;2720;52.396;10.064;2023-02-10T02:15:43;60.00;;;25.17;;
5393;SDS011;2720;52.396;10.064;2023-02-10T02:18:15;52.63;;;22.93;;
5393;SDS011;2720;52.396;10.064;2023-02-10T02:20:57;63.23;;;25.27;;
5393;SDS011;2720;52.396;10.064;2023-02-10T02:24:02;64.23;;;26.53;;
5393;SDS011;2720;52.396;10.064;2023-02-10T02:27:15;65.33;;;25.37;;
5393;SDS011;2720;52.396;10.064;2023-02-10T02:30:10;59.10;;;24.73;;
5393;SDS011;2720;52.396;10.064;2023-02-10T02:33:14;50.03;;;22.73;;
5393;SDS011;2720;52.396;10.064;2023-02-10T02:35:49;63.60;;;24.20;;
5393;SDS011;2720;52.396;10.064;2023-02-10T02:38:21;60.90;;;24.40;;
5393;SDS011;2720;52.396;10.064;2023-02-10T02:40:49;60.37;;;24.70;;
5393;SDS011;2720;52.396;10.064;2023-02-10T02:43:16;60.50;;;25.27;;
5393;SDS011;2720;52.396;10.064;2023-02-10T02:45:46;65.80;;;22.90;;
5393;SDS011;2720;52.396;10.064;2023-02-10T02:48:30;60.70;;;25.00;;
5393;SDS011;2720;52.396;10.064;2023-02-10T02:51:08;65.10;;;24.80;;
5393;SDS011;2720;52.396;10.064;2023-02-10T02:53:41;59.23;;;23.53;;
5393;SDS011;2720;52.396;10.064;2023-02-10T02:56:18;68.47;;;26.47;;
5393;SDS011;2720;52.396;10.064;2023-02-10T02:58:51;52.83;;;24.00;;
5393;SDS011;2720;52.396;10.064;2023-02-10T03:01:21;67.77;;;23.83;;
5393;SDS011;2720;52.396;10.064;2023-02-10T03:03:53;66.30;;;26.70;;
5393;SDS011;2720;52.396;10.064;2023-02-10T03:06:21;55.60;;;23.40;;
5393;SDS011;2720;52.396;10.064;2023-02-10T03:08:48;73.20;;;27.07;;
5393;SDS011;2720;52.396;10.064;2023-02-10T03:11:15;66.57;;;24.20;;
5393;SDS011;2720;52.396;10.064;2023-02-10T03:13:43;75.57;;;26.73;;
5393;SDS011;2720;52.396;10.064;2023-02-10T03:16:10;59.23;;;26.77;;
5393;SDS011;2720;52.396;10.064;2023-02-10T03:18:37;64.40;;;27.60;;
5393;SDS011;2720;52.396;10.064;2023-02-10T03:21:06;73.80;;;24.67;;
5393;SDS011;2720;52.396;10.064;2023-02-10T03:23:33;64.50;;;26.03;;
5393;SDS011;2720;52.396;10.064;2023-02-10T03:26:00;62.40;;;26.57;;
5393;SDS011;2720;52.396;10.064;2023-02-10T03:28:28;75.50;;;29.03;;
5393;SDS011;2720;52.396;10.064;2023-02-10T03:30:55;67.17;;;26.93;;
5393;SDS011;2720;52.396;10.064;2023-02-10T03:33:22;69.53;;;26.53;;
5393;SDS011;2720;52.396;10.064;2023-02-10T03:35:49;80.53;;;27.00;;
5393;SDS011;2720;52.396;10.064;2023-02-10T03:38:18;60.43;;;25.27;;
5393;SDS011;2720;52.396;10.064;2023-02-10T03:40:48;65.30;;;25.77;;
5393;SDS011;2720;52.396;10.064;2023-02-10T03:43:15;59.77;;;24.20;;
5393;SDS011;2720;52.396;10.064;2023-02-10T03:45:42;71.33;;;26.20;;
5393;SDS011;2720;52.396;10.064;2023-02-10T03:48:09;62.67;;;26.30;;
5393;SDS011;2720;52.396;10.064;2023-02-10T03:50:36;60.67;;;26.60;;
5393;SDS011;2720;52.396;10.064;2023-02-10T03:53:04;80.13;;;26.53;;
5393;SDS011;2720;52.396;10.064;2023-02-10T03:55:32;72.03;;;26.20;;
5393;SDS011;2720;52.396;10.064;2023-02-10T03:57:59;64.83;;;25.07;;
5393;SDS011;2720;52.396;10.064;2023-02-10T04:00:27;68.30;;;26.10;;
5393;SDS011;2720;52.396;10.064;2023-02-10T04:02:55;66.73;;;23.90;;
5393;SDS011;2720;52.396;10.064;2023-02-10T04:05:22;63.40;;;26.33;;
5393;SDS011;2720;52.396;10.064;2023-02-10T04:07:49;68.33;;;25.37;;
5393;SDS011;2720;52.396;10.064;2023-02-10T04:10:16;66.00;;;25.70;;
5393;SDS011;2720;52.396;10.064;2023-02-10T04:12:44;64.37;;;24.73;;
5393;SDS011;2720;52.396;10.064;2023-02-10T04:15:11;63.07;;;25.40;;
5393;SDS011;2720;52.396;10.064;2023-02-10T04:17:38;61.43;;;29.27;;
5393;SDS011;2720;52.396;10.064;2023-02-10T04:20:06;64.63;;;26.33;;
5393;SDS011;2720;52.396;10.064;2023-02-10T04:22:33;61.23;;;24.10;;
5393;SDS011;2720;52.396;10.064;2023-02-10T04:25:00;56.20;;;23.60;;
5393;SDS011;2720;52.396;10.064;2023-02-10T04:27:27;51.00;;;24.47;;
5393;SDS011;2720;52.396;10.064;2023-02-10T04:29:55;55.97;;;24.97;;
5393;SDS011;2720;52.396;10.064;2023-02-10T04:32:22;65.30;;;24.30;;
5393;SDS011;2720;52.396;10.064;2023-02-10T04:34:50;71.30;;;23.70;;
5393;SDS011;2720;52.396;10.064;2023-02-10T04:37:17;55.43;;;24.67;;
5393;SDS011;2720;52.396;10.064;2023-02-10T04:39:44;55.83;;;23.90;;
5393;SDS011;2720;52.396;10.064;2023-02-10T04:42:11;59.17;;;23.17;;
5393;SDS011;2720;52.396;10.064;2023-02-10T04:44:38;66.67;;;24.50;;
5393;SDS011;2720;52.396;10.064;2023-02-10T04:47:06;66.20;;;25.33;;
5393;SDS011;2720;52.396;10.064;2023-02-10T04:49:33;57.57;;;25.00;;
5393;SDS011;2720;52.396;10.064;2023-02-10T04:52:00;68.43;;;23.90;;
5393;SDS011;2720;52.396;10.064;2023-02-10T04:54:27;61.23;;;25.17;;
5393;SDS011;2720;52.396;10.064;2023-02-10T04:56:54;62.47;;;23.33;;
5393;SDS011;2720;52.396;10.064;2023-02-10T04:59:21;63.77;;;27.80;;
5393;SDS011;2720;52.396;10.064;2023-02-10T05:01:48;62.43;;;24.97;;
5393;SDS011;2720;52.396;10.064;2023-02-10T05:04:17;74.27;;;26.20;;
5393;SDS011;2720;52.396;10.064;2023-02-10T05:06:44;66.53;;;28.03;;
5393;SDS011;2720;52.396;10.064;2023-02-10T05:09:11;64.13;;;25.73;;
5393;SDS011;2720;52.396;10.064;2023-02-10T05:11:38;68.13;;;26.43;;
5393;SDS011;2720;52.396;10.064;2023-02-10T05:14:06;66.80;;;25.23;;
5393;SDS011;2720;52.396;10.064;2023-02-10T05:16:35;53.47;;;23.60;;
5393;SDS011;2720;52.396;10.064;2023-02-10T05:19:02;72.23;;;26.80;;
5393;SDS011;2720;52.396;10.064;2023-02-10T05:21:31;74.97;;;26.10;;
5393;SDS011;2720;52.396;10.064;2023-02-10T05:23:58;60.63;;;25.03;;
5393;SDS011;2720;52.396;10.064;2023-02-10T05:26:25;68.43;;;25.53;;
5393;SDS011;2720;52.396;10.064;2023-02-10T05:28:52;72.87;;;26.73;;
5393;SDS011;2720;52.396;10.064;2023-02-10T05:31:19;63.70;;;26.37;;
5393;SDS011;2720;52.396;10.064;2023-02-10T05:33:46;65.23;;;25.83;;
5393;SDS011;2720;52.396;10.064;2023-02-10T05:36:13;69.47;;;25.90;;
5393;SDS011;2720;52.396;10.064;2023-02-10T05:38:41;63.20;;;26.00;;
5393;SDS011;2720;52.396;10.064;2023-02-10T05:41:29;57.80;;;23.07;;
5393;SDS011;2720;52.396;10.064;2023-02-10T05:43:56;60.40;;;26.50;;
5393;SDS011;2720;52.396;10.064;2023-02-10T05:46:23;76.37;;;26.27;;
5393;SDS011;2720;52.396;10.064;2023-02-10T05:48:50;67.07;;;23.93;;
5393;SDS011;2720;52.396;10.064;2023-02-10T05:51:18;62.40;;;26.00;;
5393;SDS011;2720;52.396;10.064;2023-02-10T05:53:46;59.53;;;26.03;;
5393;SDS011;2720;52.396;10.064;2023-02-10T05:56:13;67.73;;;27.77;;
5393;SDS011;2720;52.396;10.064;2023-02-10T05:58:40;62.87;;;25.83;;
5393;SDS011;2720;52.396;10.064;2023-02-10T06:01:08;59.33;;;26.83;;
5393;SDS011;2720;52.396;10.064;2023-02-10T06:03:35;60.30;;;26.20;;
5393;SDS011;2720;52.396;10.064;2023-02-10T06:06:03;62.07;;;24.90;;
5393;SDS011;2720;52.396;10.064;2023-02-10T06:08:30;72.23;;;26.33;;
5393;SDS011;2720;52.396;10.064;2023-02-10T06:10:59;63.93;;;25.67;;
5393;SDS011;2720;52.396;10.064;2023-02-10T06:13:26;63.57;;;23.87;;
5393;SDS011;2720;52.396;10.064;2023-02-10T06:15:53;70.07;;;27.50;;
5393;SDS011;2720;52.396;10.064;2023-02-10T06:18:20;51.47;;;23.73;;
5393;SDS011;2720;52.396;10.064;2023-02-10T06:20:47;50.17;;;24.37;;
5393;SDS011;2720;52.396;10.064;2023-02-10T06:23:16;55.63;;;24.23;;
5393;SDS011;2720;52.396;10.064;2023-02-10T06:25:44;72.20;;;25.00;;
5393;SDS011;2720;52.396;10.064;2023-02-10T06:28:13;73.40;;;25.40;;
5393;SDS011;2720;52.396;10.064;2023-02-10T06:30:40;62.20;;;22.47;;
5393;SDS011;2720;52.396;10.064;2023-02-10T06:33:07;62.03;;;23.17;;
5393;SDS011;2720;52.396;10.064;2023-02-10T06:35:34;55.13;;;22.10;;
5393;SDS011;2720;52.396;10.064;2023-02-10T06:38:01;77.93;;;25.23;;
5393;SDS011;2720;52.396;10.064;2023-02-10T06:40:28;64.33;;;24.83;;
5393;SDS011;2720;52.396;10.064;2023-02-10T06:42:55;59.03;;;24.50;;
5393;SDS011;2720;52.396;10.064;2023-02-10T06:45:23;67.23;;;24.80;;
5393;SDS011;2720;52.396;10.064;2023-02-10T06:47:50;67.17;;;24.93;;
5393;SDS011;2720;52.396;10.064;2023-02-10T06:50:17;59.67;;;23.70;;
5393;SDS011;2720;52.396;10.064;2023-02-10T06:52:45;68.03;;;23.83;;
5393;SDS011;2720;52.396;10.064;2023-02-10T06:55:12;61.90;;;23.90;;
5393;SDS011;2720;52.396;10.064;2023-02-10T06:57:39;67.73;;;25.43;;
5393;SDS011;2720;52.396;10.064;2023-02-10T07:00:07;62.13;;;24.63;;
5393;SDS011;2720;52.396;10.064;2023-02-10T07:02:37;65.03;;;23.97;;
5393;SDS011;2720;52.396;10.064;2023-02-10T07:05:05;67.87;;;23.07;;
5393;SDS011;2720;52.396;10.064;2023-02-10T07:07:33;67.87;;;24.53;;
5393;SDS011;2720;52.396;10.064;2023-02-10T07:10:01;66.47;;;26.00;;
5393;SDS011;2720;52.396;10.064;2023-02-10T07:12:28;71.10;;;25.10;;
5393;SDS011;2720;52.396;10.064;2023-02-10T07:14:55;64.03;;;24.30;;
5393;SDS011;2720;52.396;10.064;2023-02-10T07:17:22;66.23;;;23.97;;
5393;SDS011;2720;52.396;10.064;2023-02-10T07:19:50;65.70;;;25.33;;
5393;SDS011;2720;52.396;10.064;2023-02-10T07:22:17;64.17;;;24.30;;
5393;SDS011;2720;52.396;10.064;2023-02-10T07:24:45;56.47;;;24.40;;
5393;SDS011;2720;52.396;10.064;2023-02-10T07:27:12;69.97;;;26.13;;
5393;SDS011;2720;52.396;10.064;2023-02-10T07:29:40;64.63;;;27.73;;
5393;SDS011;2720;52.396;10.064;2023-02-10T07:32:07;62.53;;;26.03;;
5393;SDS011;2720;52.396;10.064;2023-02-10T07:34:34;78.83;;;27.73;;
5393;SDS011;2720;52.396;10.064;2023-02-10T07:37:02;76.17;;;24.40;;
5393;SDS011;2720;52.396;10.064;2023-02-10T07:39:29;74.77;;;26.70;;
5393;SDS011;2720;52.396;10.064;2023-02-10T07:41:56;73.23;;;29.30;;
5393;SDS011;2720;52.396;10.064;2023-02-10T07:44:23;70.70;;;26.67;;
5393;SDS011;2720;52.396;10.064;2023-02-10T07:46:51;58.77;;;26.00;;
5393;SDS011;2720;52.396;10.064;2023-02-10T07:49:18;62.10;;;26.93;;
5393;SDS011;2720;52.396;10.064;2023-02-10T07:51:45;72.43;;;27.63;;
5393;SDS011;2720;52.396;10.064;2023-02-10T07:54:13;69.07;;;27.90;;
5393;SDS011;2720;52.396;10.064;2023-02-10T07:56:40;72.47;;;25.47;;
5393;SDS011;2720;52.396;10.064;2023-02-10T07:59:07;65.93;;;24.50;;
5393;SDS011;2720;52.396;10.064;2023-02-10T08:01:34;76.07;;;26.07;;
5393;SDS011;2720;52.396;10.064;2023-02-10T08:04:06;76.47;;;24.63;;
5393;SDS011;2720;52.396;10.064;2023-02-10T08:06:33;66.97;;;25.63;;
5393;SDS011;2720;52.396;10.064;2023-02-10T08:09:01;61.63;;;24.23;;
5393;SDS011;2720;52.396;10.064;2023-02-10T08:11:29;73.43;;;27.53;;
5393;SDS011;2720;52.396;10.064;2023-02-10T08:13:57;68.30;;;23.00;;
5393;SDS011;2720;52.396;10.064;2023-02-10T08:16:24;59.40;;;23.13;;
5393;SDS011;2720;52.396;10.064;2023-02-10T08:18:51;57.17;;;25.03;;
5393;SDS011;2720;52.396;10.064;2023-02-10T08:21:18;59.17;;;25.80;;
5393;SDS011;2720;52.396;10.064;2023-02-10T08:23:45;63.80;;;24.13;;
5393;SDS011;2720;52.396;10.064;2023-02-10T08:26:13;62.23;;;25.53;;
5393;SDS011;2720;52.396;10.064;2023-02-10T08:28:42;63.30;;;25.30;;
5393;SDS011;2720;52.396;10.064;2023-02-10T08:31:09;71.57;;;23.47;;
5393;SDS011;2720;52.396;10.064;2023-02-10T08:33:36;52.80;;;22.40;;
5393;SDS011;2720;52.396;10.064;2023-02-10T08:36:05;68.70;;;24.17;;
5393;SDS011;2720;52.396;10.064;2023-02-10T08:38:34;58.97;;;24.10;;
5393;SDS011;2720;52.396;10.064;2023-02-10T08:41:01;51.90;;;21.77;;
5393;SDS011;2720;52.396;10.064;2023-02-10T08:43:28;56.53;;;24.10;;
5393;SDS011;2720;52.396;10.064;2023-02-10T08:45:57;60.00;;;25.20;;
5393;SDS011;2720;52.396;10.064;2023-02-10T08:48:25;67.63;;;24.37;;
5393;SDS011;2720;52.396;10.064;2023-02-10T08:50:53;74.90;;;25.70;;
5393;SDS011;2720;52.396;10.064;2023-02-10T08:53:20;64.80;;;24.60;;
5393;SDS011;2720;52.396;10.064;2023-02-10T08:55:54;64.93;;;22.47;;
5393;SDS011;2720;52.396;10.064;2023-02-10T08:58:22;57.00;;;23.90;;
5393;SDS011;2720;52.396;10.064;2023-02-10T09:00:49;64.23;;;24.67;;
5393;SDS011;2720;52.396;10.064;2023-02-10T09:03:17;72.53;;;25.10;;
5393;SDS011;2720;52.396;10.064;2023-02-10T09:05:44;60.80;;;24.97;;
5393;SDS011;2720;52.396;10.064;2023-02-10T09:08:13;64.00;;;24.00;;
5393;SDS011;2720;52.396;10.064;2023-02-10T09:10:40;61.37;;;25.87;;
5393;SDS011;2720;52.396;10.064;2023-02-10T09:13:07;62.33;;;24.67;;
5393;SDS011;2720;52.396;10.064;2023-02-10T09:15:36;79.00;;;26.93;;
5393;SDS011;2720;52.396;10.064;2023-02-10T09:18:03;66.73;;;26.07;;
5393;SDS011;2720;52.396;10.064;2023-02-10T09:20:32;69.30;;;26.80;;
5393;SDS011;2720;52.396;10.064;2023-02-10T09:23:00;65.80;;;26.57;;
5393;SDS011;2720;52.396;10.064;2023-02-10T09:25:27;55.80;;;27.40;;
5393;SDS011;2720;52.396;10.064;2023-02-10T09:27:54;66.67;;;27.67;;
5393;SDS011;2720;52.396;10.064;2023-02-10T09:30:22;62.93;;;26.70;;
5393;SDS011;2720;52.396;10.064;2023-02-10T09:32:51;72.27;;;28.97;;
5393;SDS011;2720;52.396;10.064;2023-02-10T09:35:19;78.93;;;28.80;;
5393;SDS011;2720;52.396;10.064;2023-02-10T09:37:47;70.63;;;26.53;;
5393;SDS011;2720;52.396;10.064;2023-02-10T09:40:16;70.57;;;28.27;;
5393;SDS011;2720;52.396;10.064;2023-02-10T09:42:52;66.53;;;27.47;;
5393;SDS011;2720;52.396;10.064;2023-02-10T09:45:34;70.23;;;27.57;;
5393;SDS011;2720;52.396;10.064;2023-02-10T09:48:09;76.63;;;29.53;;
5393;SDS011;2720;52.396;10.064;2023-02-10T09:50:59;73.97;;;26.97;;
5393;SDS011;2720;52.396;10.064;2023-02-10T09:53:36;69.67;;;26.30;;
5393;SDS011;2720;52.396;10.064;2023-02-10T09:56:04;63.40;;;27.37;;
5393;SDS011;2720;52.396;10.064;2023-02-10T09:58:35;66.10;;;25.47;;
5393;SDS011;2720;52.396;10.064;2023-02-10T10:01:10;70.73;;;28.30;;
5393;SDS011;2720;52.396;10.064;2023-02-10T10:03:43;56.87;;;26.13;;
5393;SDS011;2720;52.396;10.064;2023-02-10T10:06:16;69.13;;;25.57;;
5393;SDS011;2720;52.396;10.064;2023-02-10T10:08:50;73.23;;;28.10;;
5393;SDS011;2720;52.396;10.064;2023-02-10T10:11:25;62.67;;;27.33;;
5393;SDS011;2720;52.396;10.064;2023-02-10T10:13:55;67.33;;;29.03;;
5393;SDS011;2720;52.396;10.064;2023-02-10T10:16:33;65.77;;;26.07;;
5393;SDS011;2720;52.396;10.064;2023-02-10T10:19:13;68.60;;;26.50;;
5393;SDS011;2720;52.396;10.064;2023-02-10T10:21:51;67.67;;;25.67;;
5393;SDS011;2720;52.396;10.064;2023-02-10T10:24:37;73.67;;;27.33;;
5393;SDS011;2720;52.396;10.064;2023-02-10T10:27:17;71.27;;;29.60;;
5393;SDS011;2720;52.396;10.064;2023-02-10T10:29:52;75.87;;;26.67;;
5393;SDS011;2720;52.396;10.064;2023-02-10T10:32:25;70.57;;;27.90;;
5393;SDS011;2720;52.396;10.064;2023-02-10T10:34:54;77.40;;;27.90;;
5393;SDS011;2720;52.396;10.064;2023-02-10T10:37:22;67.90;;;28.33;;
5393;SDS011;2720;52.396;10.064;2023-02-10T10:39:52;72.67;;;26.60;;
5393;SDS011;2720;52.396;10.064;2023-02-10T10:42:23;71.23;;;27.30;;
5393;SDS011;2720;52.396;10.064;2023-02-10T10:44:56;69.37;;;26.20;;
5393;SDS011;2720;52.396;10.064;2023-02-10T10:50:11;63.63;;;27.57;;
5393;SDS011;2720;52.396;10.064;2023-02-10T10:52:40;77.50;;;27.03;;
5393;SDS011;2720;52.396;10.064;2023-02-10T10:55:12;61.60;;;27.43;;
5393;SDS011;2720;52.396;10.064;2023-02-10T10:57:45;71.13;;;28.63;;
5393;SDS011;2720;52.396;10.064;2023-02-10T11:00:15;62.87;;;26.23;;
5393;SDS011;2720;52.396;10.064;2023-02-10T11:02:54;72.73;;;27.10;;
5393;SDS011;2720;52.396;10.064;2023-02-10T11:05:24;63.67;;;26.50;;
5393;SDS011;2720;52.396;10.064;2023-02-10T11:07:55;89.10;;;29.40;;
5393;SDS011;2720;52.396;10.064;2023-02-10T11:10:25;74.10;;;27.63;;
5393;SDS011;2720;52.396;10.064;2023-02-10T11:12:56;83.10;;;27.30;;
5393;SDS011;2720;52.396;10.064;2023-02-10T11:15:29;66.83;;;28.10;;
5393;SDS011;2720;52.396;10.064;2023-02-10T11:18:00;64.37;;;27.03;;
5393;SDS011;2720;52.396;10.064;2023-02-10T11:20:30;81.67;;;26.90;;
5393;SDS011;2720;52.396;10.064;2023-02-10T11:22:59;77.20;;;27.57;;
5393;SDS011;2720;52.396;10.064;2023-02-10T11:25:30;78.73;;;26.40;;
5393;SDS011;2720;52.396;10.064;2023-02-10T11:27:59;71.10;;;26.17;;
5393;SDS011;2720;52.396;10.064;2023-02-10T11:30:27;70.83;;;25.90;;
5393;SDS011;2720;52.396;10.064;2023-02-10T11:32:55;71.83;;;25.07;;
5393;SDS011;2720;52.396;10.064;2023-02-10T11:35:23;74.90;;;26.57;;
5393;SDS011;2720;52.396;10.064;2023-02-10T11:37:52;73.50;;;28.50;;
5393;SDS011;2720;52.396;10.064;2023-02-10T11:40:23;75.37;;;26.63;;
5393;SDS011;2720;52.396;10.064;2023-02-10T11:42:54;71.23;;;27.83;;
5393;SDS011;2720;52.396;10.064;2023-02-10T11:45:24;64.27;;;25.40;;
5393;SDS011;2720;52.396;10.064;2023-02-10T11:48:01;63.73;;;26.07;;
5393;SDS011;2720;52.396;10.064;2023-02-10T11:50:30;79.40;;;28.07;;
5393;SDS011;2720;52.396;10.064;2023-02-10T11:52:59;63.20;;;26.10;;
5393;SDS011;2720;52.396;10.064;2023-02-10T11:55:28;62.77;;;25.73;;
5393;SDS011;2720;52.396;10.064;2023-02-10T11:58:06;67.93;;;25.10;;
5393;SDS011;2720;52.396;10.064;2023-02-10T12:01:07;69.47;;;24.47;;
5393;SDS011;2720;52.396;10.064;2023-02-10T12:03:41;70.97;;;25.23;;
5393;SDS011;2720;52.396;10.064;2023-02-10T12:06:23;66.83;;;23.90;;
5393;SDS011;2720;52.396;10.064;2023-02-10T12:08:56;67.50;;;25.67;;
5393;SDS011;2720;52.396;10.064;2023-02-10T12:11:35;57.00;;;23.87;;
5393;SDS011;2720;52.396;10.064;2023-02-10T12:14:16;61.57;;;24.30;;
5393;SDS011;2720;52.396;10.064;2023-02-10T12:16:56;56.80;;;22.50;;
5393;SDS011;2720;52.396;10.064;2023-02-10T12:19:32;65.13;;;23.83;;
5393;SDS011;2720;52.396;10.064;2023-02-10T12:22:09;57.97;;;22.30;;
5393;SDS011;2720;52.396;10.064;2023-02-10T12:24:56;57.87;;;24.30;;
5393;SDS011;2720;52.396;10.064;2023-02-10T12:27:45;58.87;;;21.70;;
5393;SDS011;2720;52.396;10.064;2023-02-10T12:30:22;60.73;;;21.40;;
5393;SDS011;2720;52.396;10.064;2023-02-10T12:32:54;57.77;;;20.40;;
5393;SDS011;2720;52.396;10.064;2023-02-10T12:35:31;66.63;;;23.07;;
5393;SDS011;2720;52.396;10.064;2023-02-10T12:38:09;51.17;;;21.87;;
5393;SDS011;2720;52.396;10.064;2023-02-10T12:41:01;42.93;;;20.17;;
5393;SDS011;2720;52.396;10.064;2023-02-10T12:43:51;58.93;;;22.60;;
5393;SDS011;2720;52.396;10.064;2023-02-10T12:46:32;52.40;;;19.97;;
5393;SDS011;2720;52.396;10.064;2023-02-10T12:49:09;65.13;;;22.43;;
5393;SDS011;2720;52.396;10.064;2023-02-10T12:51:58;70.90;;;23.33;;
5393;SDS011;2720;52.396;10.064;2023-02-10T12:54:30;60.30;;;22.90;;
5393;SDS011;2720;52.396;10.064;2023-02-10T12:57:07;45.60;;;19.87;;
5393;SDS011;2720;52.396;10.064;2023-02-10T12:59:39;75.27;;;21.73;;
5393;SDS011;2720;52.396;10.064;2023-02-10T13:02:14;52.40;;;20.77;;
5393;SDS011;2720;52.396;10.064;2023-02-10T13:04:46;61.97;;;21.47;;
5393;SDS011;2720;52.396;10.064;2023-02-10T13:07:19;50.10;;;20.67;;
5393;SDS011;2720;52.396;10.064;2023-02-10T13:09:55;53.60;;;19.33;;
5393;SDS011;2720;52.396;10.064;2023-02-10T13:12:28;38.90;;;16.20;;
5393;SDS011;2720;52.396;10.064;2023-02-10T13:14:59;50.77;;;20.60;;
5393;SDS011;2720;52.396;10.064;2023-02-10T13:17:33;40.70;;;18.23;;
5393;SDS011;2720;52.396;10.064;2023-02-10T13:20:04;44.73;;;18.07;;
5393;SDS011;2720;52.396;10.064;2023-02-10T13:22:41;44.90;;;19.40;;
5393;SDS011;2720;52.396;10.064;2023-02-10T13:25:14;47.73;;;18.80;;
5393;SDS011;2720;52.396;10.064;2023-02-10T13:27:46;53.33;;;19.10;;
5393;SDS011;2720;52.396;10.064;2023-02-10T13:30:21;46.07;;;18.47;;
5393;SDS011;2720;52.396;10.064;2023-02-10T13:33:13;57.03;;;21.77;;
5393;SDS011;2720;52.396;10.064;2023-02-10T13:35:44;57.97;;;23.67;;
5393;SDS011;2720;52.396;10.064;2023-02-10T13:38:14;56.60;;;22.03;;
5393;SDS011;2720;52.396;10.064;2023-02-10T13:40:47;56.00;;;21.97;;
5393;SDS011;2720;52.396;10.064;2023-02-10T13:43:20;42.33;;;21.10;;
5393;SDS011;2720;52.396;10.064;2023-02-10T13:45:52;49.40;;;20.30;;
5393;SDS011;2720;52.396;10.064;2023-02-10T13:48:22;51.30;;;19.80;;
5393;SDS011;2720;52.396;10.064;2023-02-10T13:50:54;48.97;;;21.17;;
5393;SDS011;2720;52.396;10.064;2023-02-10T13:53:26;57.23;;;20.87;;
5393;SDS011;2720;52.396;10.064;2023-02-10T13:56:02;59.93;;;20.70;;
5393;SDS011;2720;52.396;10.064;2023-02-10T13:58:33;42.33;;;18.70;;
5393;SDS011;2720;52.396;10.064;2023-02-10T14:01:01;41.10;;;19.40;;
5393;SDS011;2720;52.396;10.064;2023-02-10T14:03:30;48.30;;;21.17;;
5393;SDS011;2720;52.396;10.064;2023-02-10T14:05:59;53.67;;;18.80;;
5393;SDS011;2720;52.396;10.064;2023-02-10T14:08:28;49.73;;;18.60;;
5393;SDS011;2720;52.396;10.064;2023-02-10T14:10:58;47.93;;;19.90;;
5393;SDS011;2720;52.396;10.064;2023-02-10T14:13:30;42.90;;;17.47;;
5393;SDS011;2720;52.396;10.064;2023-02-10T14:16:00;33.27;;;17.87;;
5393;SDS011;2720;52.396;10.064;2023-02-10T14:18:32;41.13;;;19.10;;
5393;SDS011;2720;52.396;10.064;2023-02-10T14:21:01;41.43;;;18.40;;
5393;SDS011;2720;52.396;10.064;2023-02-10T14:23:30;38.93;;;18.67;;
5393;SDS011;2720;52.396;10.064;2023-02-10T14:26:00;44.50;;;18.43;;
5393;SDS011;2720;52.396;10.064;2023-02-10T14:28:31;48.40;;;18.70;;
5393;SDS011;2720;52.396;10.064;2023-02-10T14:31:01;40.77;;;17.30;;
5393;SDS011;2720;52.396;10.064;2023-02-10T14:33:34;44.93;;;17.90;;
5393;SDS011;2720;52.396;10.064;2023-02-10T14:36:03;49.03;;;18.63;;
5393;SDS011;2720;52.396;10.064;2023-02-10T14:38:40;42.43;;;17.80;;
5393;SDS011;2720;52.396;10.064;2023-02-10T14:41:12;43.80;;;18.40;;
5393;SDS011;2720;52.396;10.064;2023-02-10T14:43:39;41.37;;;17.77;;
5393;SDS011;2720;52.396;10.064;2023-02-10T14:46:06;41.27;;;16.70;;
5393;SDS011;2720;52.396;10.064;2023-02-10T14:48:38;44.47;;;17.30;;
5393;SDS011;2720;52.396;10.064;2023-02-10T14:51:06;37.20;;;16.40;;
5393;SDS011;2720;52.396;10.064;2023-02-10T14:53:43;40.53;;;16.37;;
5393;SDS011;2720;52.396;10.064;2023-02-10T14:56:14;46.27;;;16.97;;